createdAt,value
2022-10-28T00:01:24.416Z,31.30
2022-10-28T00:03:56.758Z,29.77
2022-10-28T00:06:32.057Z,29.52
2022-10-28T00:08:59.255Z,26.85
2022-10-28T00:11:28.494Z,28.23
2022-10-28T00:16:30.726Z,26.40
2022-10-28T00:18:58.884Z,27.30
2022-10-28T00:21:27.937Z,27.13
2022-10-28T00:23:55.140Z,25.02
2022-10-28T00:26:25.043Z,29.65
2022-10-28T00:28:53.777Z,29.08
2022-10-28T00:31:21.787Z,28.15
2022-10-28T00:33:48.624Z,28.73
2022-10-28T00:36:19.840Z,25.92
2022-10-28T00:38:48.723Z,31.58
2022-10-28T00:41:18.317Z,27.00
2022-10-28T00:43:47.698Z,27.98
2022-10-28T00:46:24.613Z,27.73
2022-10-28T00:48:54.934Z,26.05
2022-10-28T00:51:23.528Z,31.75
2022-10-28T00:53:51.597Z,25.05
2022-10-28T00:56:18.685Z,27.38
2022-10-28T00:58:46.754Z,26.15
2022-10-28T01:01:13.464Z,32.72
2022-10-28T01:03:40.155Z,27.50
2022-10-28T01:06:07.307Z,25.85
2022-10-28T01:08:35.215Z,25.80
2022-10-28T01:11:17.379Z,24.55
2022-10-28T01:13:59.568Z,26.42
2022-10-28T01:16:35.436Z,29.70
2022-10-28T01:19:17.994Z,23.13
2022-10-28T01:22:18.757Z,22.95
2022-10-28T01:25:04.135Z,26.90
2022-10-28T01:27:47.237Z,24.38
2022-10-28T01:30:20.455Z,21.80
2022-10-28T01:32:50.066Z,24.48
2022-10-28T01:35:38.438Z,21.23
2022-10-28T01:38:23.413Z,21.23
2022-10-28T01:41:08.241Z,23.65
2022-10-28T01:43:45.870Z,26.50
2022-10-28T01:46:22.263Z,32.03
2022-10-28T01:48:54.339Z,34.05
2022-10-28T01:51:33.080Z,31.13
2022-10-28T01:54:02.193Z,33.22
2022-10-28T01:56:33.334Z,36.13
2022-10-28T01:59:01.142Z,31.50
2022-10-28T02:01:29.311Z,35.05
2022-10-28T02:03:56.883Z,36.63
2022-10-28T02:06:25.783Z,33.90
2022-10-28T02:09:19.704Z,35.97
2022-10-28T02:12:24.696Z,43.08
2022-10-28T02:14:57.412Z,45.22
2022-10-28T02:17:37.122Z,50.50
2022-10-28T02:20:25.091Z,168.63
2022-10-28T02:22:56.284Z,62.90
2022-10-28T02:25:34.056Z,282.05
2022-10-28T02:28:05.446Z,232.93
2022-10-28T02:30:43.658Z,122.93
2022-10-28T02:33:13.202Z,592.72
2022-10-28T02:35:49.098Z,392.95
2022-10-28T02:38:20.077Z,214.80
2022-10-28T02:43:23.934Z,1262.28
2022-10-28T02:45:54.526Z,1029.70
2022-10-28T02:49:07.172Z,273.73
2022-10-28T02:51:40.587Z,637.88
2022-10-28T02:54:19.281Z,163.60
2022-10-28T02:57:01.534Z,115.10
2022-10-28T02:59:28.917Z,90.63
2022-10-28T03:01:56.078Z,1166.95
2022-10-28T03:04:22.871Z,411.63
2022-10-28T03:06:49.527Z,484.73
2022-10-28T03:09:16.139Z,250.80
2022-10-28T03:11:42.802Z,341.95
2022-10-28T03:14:11.892Z,118.15
2022-10-28T03:16:41.313Z,556.33
2022-10-28T03:21:35.543Z,749.17
2022-10-28T03:24:02.223Z,527.85
2022-10-28T03:26:28.845Z,73.88
2022-10-28T03:28:55.497Z,147.57
2022-10-28T03:31:22.133Z,899.88
2022-10-28T03:33:48.797Z,542.63
2022-10-28T03:36:15.426Z,192.23
2022-10-28T03:38:42.057Z,327.23
2022-10-28T03:41:08.674Z,448.58
2022-10-28T03:43:35.331Z,65.53
2022-10-28T03:46:02.019Z,96.85
2022-10-28T03:48:28.686Z,80.65
2022-10-28T03:50:55.427Z,224.45
2022-10-28T03:53:26.281Z,273.70
2022-10-28T03:55:55.590Z,124.55
2022-10-28T03:58:22.493Z,100.43
2022-10-28T04:00:50.279Z,222.98
2022-10-28T04:03:17.851Z,329.92
2022-10-28T04:05:44.802Z,168.63
2022-10-28T04:08:11.449Z,93.78
2022-10-28T04:10:38.126Z,497.95
2022-10-28T04:13:06.334Z,72.85
2022-10-28T04:15:33.810Z,344.60
2022-10-28T04:18:00.423Z,175.38
2022-10-28T04:20:27.620Z,740.72
2022-10-28T04:22:57.146Z,165.55
2022-10-28T04:25:25.250Z,166.40
2022-10-28T04:27:52.335Z,338.98
2022-10-28T04:30:19.270Z,267.38
2022-10-28T04:32:45.922Z,487.35
2022-10-28T04:35:13.239Z,224.07
2022-10-28T04:37:40.808Z,152.15
2022-10-28T04:40:08.573Z,887.38
2022-10-28T04:42:35.350Z,560.25
2022-10-28T04:45:02.145Z,886.80
2022-10-28T04:47:28.808Z,290.00
2022-10-28T04:49:55.460Z,757.13
2022-10-28T04:52:22.149Z,495.42
2022-10-28T04:54:48.801Z,118.55
2022-10-28T04:57:15.441Z,315.42
2022-10-28T04:59:42.127Z,217.13
2022-10-28T05:02:08.900Z,305.98
2022-10-28T05:04:35.663Z,693.60
2022-10-28T05:07:02.321Z,699.63
2022-10-28T05:09:28.950Z,467.63
2022-10-28T05:11:55.592Z,953.65
2022-10-28T05:14:22.269Z,930.58
2022-10-28T05:16:48.981Z,364.38
2022-10-28T05:19:15.617Z,269.20
2022-10-28T05:21:42.288Z,561.85
2022-10-28T05:24:09.084Z,151.98
2022-10-28T05:26:35.679Z,671.25
2022-10-28T05:29:02.302Z,438.60
2022-10-28T05:31:28.918Z,250.73
2022-10-28T05:33:55.712Z,731.03
2022-10-28T05:36:22.319Z,372.35
2022-10-28T05:38:49.768Z,668.45
2022-10-28T05:41:16.461Z,643.35
2022-10-28T05:43:43.079Z,342.70
2022-10-28T05:46:09.775Z,1217.50
2022-10-28T05:48:36.422Z,895.33
2022-10-28T05:51:03.038Z,642.55
2022-10-28T05:53:29.664Z,116.93
2022-10-28T05:55:56.284Z,126.40
2022-10-28T05:58:22.959Z,162.82
2022-10-28T06:00:49.633Z,1001.17
2022-10-28T06:03:16.506Z,124.38
2022-10-28T06:05:44.467Z,751.65
2022-10-28T06:08:12.660Z,127.78
2022-10-28T06:10:39.766Z,75.85
2022-10-28T06:13:05.049Z,273.73
2022-10-28T06:15:31.726Z,125.80
2022-10-28T06:17:58.356Z,244.10
2022-10-28T06:20:25.095Z,166.65
2022-10-28T06:22:53.403Z,165.00
2022-10-28T06:25:23.982Z,143.43
2022-10-28T06:27:56.456Z,108.63
2022-10-28T06:30:24.479Z,129.95
2022-10-28T06:32:51.267Z,245.27
2022-10-28T06:35:18.327Z,254.68
2022-10-28T06:37:44.966Z,514.45
2022-10-28T06:40:11.665Z,69.55
2022-10-28T06:42:38.416Z,140.32
2022-10-28T06:45:05.728Z,131.60
2022-10-28T06:47:36.606Z,58.00
2022-10-28T06:50:07.323Z,138.85
2022-10-28T06:52:34.036Z,190.52
2022-10-28T06:55:00.700Z,63.53
2022-10-28T06:57:29.260Z,58.90
2022-10-28T06:59:56.101Z,71.05
2022-10-28T07:02:22.854Z,67.60
2022-10-28T07:04:49.572Z,70.45
2022-10-28T07:07:16.349Z,62.55
2022-10-28T07:09:45.018Z,56.42
2022-10-28T07:12:12.395Z,60.63
2022-10-28T07:14:39.073Z,58.30
2022-10-28T07:17:05.693Z,59.33
2022-10-28T07:19:32.371Z,53.53
2022-10-28T07:21:59.123Z,58.63
2022-10-28T07:24:25.828Z,61.85
2022-10-28T07:26:55.508Z,63.50
2022-10-28T07:29:24.420Z,61.55
2022-10-28T07:31:54.503Z,57.50
2022-10-28T07:34:26.761Z,53.28
2022-10-28T07:36:55.114Z,57.03
2022-10-28T07:39:22.142Z,54.85
2022-10-28T07:41:48.823Z,59.22
2022-10-28T07:44:15.554Z,59.75
2022-10-28T07:46:42.274Z,57.30
2022-10-28T07:49:09.311Z,53.95
2022-10-28T07:51:36.119Z,52.10
2022-10-28T07:54:02.769Z,66.53
2022-10-28T07:56:29.392Z,62.03
2022-10-28T07:58:56.018Z,53.15
2022-10-28T08:01:22.820Z,46.70
2022-10-28T08:03:49.551Z,51.90
2022-10-28T08:06:19.240Z,50.30
2022-10-28T08:08:49.377Z,49.78
2022-10-28T08:11:20.321Z,61.75
2022-10-28T08:13:47.088Z,52.53
2022-10-28T08:16:13.875Z,50.90
2022-10-28T08:18:40.929Z,55.25
2022-10-28T08:21:09.414Z,46.38
2022-10-28T08:23:36.684Z,42.25
2022-10-28T08:26:03.339Z,46.13
2022-10-28T08:28:30.131Z,45.88
2022-10-28T08:31:08.577Z,44.35
2022-10-28T08:33:45.191Z,32.58
2022-10-28T08:36:13.450Z,41.78
2022-10-28T08:38:45.112Z,38.90
2022-10-28T08:41:32.969Z,48.03
2022-10-28T08:44:30.937Z,44.88
2022-10-28T08:47:21.432Z,46.30
2022-10-28T08:49:52.365Z,34.20
2022-10-28T08:52:41.718Z,38.88
2022-10-28T08:55:15.768Z,47.67
2022-10-28T08:57:53.729Z,38.75
2022-10-28T09:00:23.694Z,41.63
2022-10-28T09:02:59.291Z,39.45
2022-10-28T09:05:26.872Z,34.70
2022-10-28T09:07:54.541Z,42.88
2022-10-28T09:10:50.802Z,46.33
2022-10-28T09:13:26.585Z,40.90
2022-10-28T09:16:08.541Z,43.03
2022-10-28T09:18:56.000Z,43.10
2022-10-28T09:21:47.733Z,39.80
2022-10-28T09:24:21.016Z,25.83
2022-10-28T09:27:16.976Z,21.08
2022-10-28T09:29:55.144Z,24.08
2022-10-28T09:32:28.822Z,23.00
2022-10-28T09:35:01.489Z,19.17
2022-10-28T09:37:35.393Z,21.15
2022-10-28T09:40:16.004Z,19.23
2022-10-28T09:43:06.793Z,16.90
2022-10-28T09:45:36.256Z,15.20
2022-10-28T09:48:10.577Z,23.23
2022-10-28T09:50:37.358Z,17.27
2022-10-28T09:53:40.368Z,16.85
2022-10-28T09:58:41.440Z,14.88
2022-10-28T10:01:08.229Z,12.23
2022-10-28T10:03:34.907Z,13.68
2022-10-28T10:06:10.601Z,13.68
2022-10-28T10:08:37.752Z,13.65
2022-10-28T10:11:25.384Z,13.95
2022-10-28T10:13:52.869Z,17.73
2022-10-28T10:16:47.908Z,15.32
2022-10-28T10:19:14.714Z,13.52
2022-10-28T10:21:45.512Z,15.45
2022-10-28T10:24:33.035Z,12.05
2022-10-28T10:27:12.923Z,20.95
2022-10-28T10:29:45.585Z,13.57
2022-10-28T10:32:31.390Z,10.95
2022-10-28T10:35:02.257Z,12.68
2022-10-28T10:37:30.681Z,13.48
2022-10-28T10:40:07.609Z,12.82
2022-10-28T10:42:39.244Z,13.38
2022-10-28T10:45:16.449Z,12.75
2022-10-28T10:47:43.290Z,15.82
2022-10-28T10:50:25.941Z,13.80
2022-10-28T10:52:55.614Z,15.85
2022-10-28T10:55:27.970Z,13.63
2022-10-28T10:57:55.131Z,11.82
2022-10-28T11:00:23.455Z,12.45
2022-10-28T11:02:53.550Z,13.75
2022-10-28T11:05:27.085Z,13.82
2022-10-28T11:07:57.378Z,11.02
2022-10-28T11:10:25.883Z,10.93
2022-10-28T11:12:55.730Z,12.65
2022-10-28T11:15:25.893Z,11.15
2022-10-28T11:18:11.582Z,12.77
2022-10-28T11:20:53.707Z,13.10
2022-10-28T11:23:33.157Z,13.32
2022-10-28T11:26:03.350Z,13.48
2022-10-28T11:29:08.660Z,16.35
2022-10-28T11:31:53.995Z,14.50
2022-10-28T11:34:26.838Z,12.57
2022-10-28T11:37:39.570Z,11.23
2022-10-28T11:40:18.385Z,16.05
2022-10-28T11:42:57.794Z,16.65
2022-10-28T11:45:51.935Z,14.80
2022-10-28T11:48:34.510Z,13.30
2022-10-28T11:51:17.413Z,12.98
2022-10-28T11:54:23.741Z,9.90
2022-10-28T11:56:58.701Z,11.85
2022-10-28T11:59:25.270Z,12.50
2022-10-28T12:02:22.697Z,15.32
2022-10-28T12:05:03.959Z,13.30
2022-10-28T12:10:31.589Z,11.98
2022-10-28T12:13:35.546Z,13.10
2022-10-28T12:16:05.323Z,12.35
2022-10-28T12:18:50.519Z,10.82
2022-10-28T12:24:15.945Z,13.20
2022-10-28T12:26:45.905Z,12.80
2022-10-28T12:29:37.224Z,10.68
2022-10-28T12:32:15.151Z,12.25
2022-10-28T12:34:52.657Z,12.63
2022-10-28T12:37:25.149Z,11.02
2022-10-28T12:40:04.922Z,9.13
2022-10-28T12:42:35.323Z,11.02
2022-10-28T12:45:05.337Z,17.10
2022-10-28T12:47:42.215Z,11.60
2022-10-28T12:50:22.161Z,14.40
2022-10-28T12:53:03.989Z,14.65
2022-10-28T12:55:37.964Z,13.32
2022-10-28T12:58:12.855Z,11.95
2022-10-28T13:00:45.877Z,12.18
2022-10-28T13:03:14.386Z,10.65
2022-10-28T13:05:53.119Z,13.02
2022-10-28T13:08:47.720Z,14.23
2022-10-28T13:11:33.187Z,15.77
2022-10-28T13:14:32.666Z,10.18
2022-10-28T13:17:30.010Z,10.82
2022-10-28T13:20:17.179Z,12.05
2022-10-28T13:22:53.306Z,11.45
2022-10-28T13:25:38.809Z,12.18
2022-10-28T13:28:05.881Z,9.50
2022-10-28T13:30:32.685Z,10.73
2022-10-28T13:33:09.954Z,11.05
2022-10-28T13:35:37.206Z,14.95
2022-10-28T13:38:10.497Z,12.07
2022-10-28T13:40:39.921Z,17.05
2022-10-28T13:43:18.951Z,17.25
2022-10-28T13:45:55.703Z,12.27
2022-10-28T13:48:43.935Z,11.20
2022-10-28T13:51:10.512Z,11.35
2022-10-28T13:53:47.922Z,16.75
2022-10-28T13:56:23.614Z,12.93
2022-10-28T13:59:24.170Z,12.25
2022-10-28T14:02:08.003Z,12.60
2022-10-28T14:04:37.000Z,11.52
2022-10-28T14:07:20.229Z,12.85
2022-10-28T14:09:47.211Z,13.40
2022-10-28T14:12:28.944Z,13.93
2022-10-28T14:15:02.739Z,10.15
2022-10-28T14:17:34.449Z,13.52
2022-10-28T14:20:01.733Z,9.88
2022-10-28T14:22:34.927Z,19.05
2022-10-28T14:25:02.242Z,15.85
2022-10-28T14:27:42.722Z,14.13
2022-10-28T14:30:14.116Z,16.27
2022-10-28T14:32:44.529Z,19.88
2022-10-28T14:35:12.973Z,15.10
2022-10-28T14:38:19.821Z,14.20
2022-10-28T14:41:03.253Z,13.75
2022-10-28T14:44:04.794Z,14.75
2022-10-28T14:46:53.257Z,12.70
2022-10-28T14:49:28.585Z,12.73
2022-10-28T14:51:55.749Z,15.48
2022-10-28T14:54:52.639Z,15.20
2022-10-28T14:57:22.858Z,16.98
2022-10-28T14:59:50.478Z,20.15
2022-10-28T15:02:18.497Z,16.02
2022-10-28T15:04:47.159Z,14.88
2022-10-28T15:07:18.793Z,16.02
2022-10-28T15:09:48.847Z,18.67
2022-10-28T15:12:17.337Z,21.17
2022-10-28T15:14:53.588Z,19.65
2022-10-28T15:17:28.821Z,21.15
2022-10-28T15:22:26.513Z,16.33
2022-10-28T15:25:01.913Z,25.65
2022-10-28T15:27:33.766Z,25.35
2022-10-28T15:30:00.412Z,33.83
2022-10-28T15:32:29.261Z,17.02
2022-10-28T15:34:56.012Z,17.70
2022-10-28T15:37:30.287Z,19.98
2022-10-28T15:40:12.564Z,25.05
2022-10-28T15:43:10.221Z,18.02
2022-10-28T15:45:42.186Z,19.52
2022-10-28T15:48:14.097Z,25.30
2022-10-28T15:50:41.327Z,19.45
2022-10-28T15:53:10.863Z,26.42
2022-10-28T15:58:35.758Z,24.23
2022-10-28T16:01:02.739Z,23.13
2022-10-28T16:03:44.349Z,25.98
2022-10-28T16:06:26.350Z,22.38
2022-10-28T16:09:29.413Z,29.75
2022-10-28T16:11:58.273Z,30.92
2022-10-28T16:14:37.753Z,29.83
2022-10-28T16:17:27.000Z,29.45
2022-10-28T16:20:15.441Z,32.50
2022-10-28T16:22:45.431Z,22.02
2022-10-28T16:25:17.583Z,29.95
2022-10-28T16:27:44.263Z,31.88
2022-10-28T16:30:11.547Z,27.77
2022-10-28T16:32:40.563Z,35.05
2022-10-28T16:35:16.293Z,32.75
2022-10-28T16:37:45.787Z,37.95
2022-10-28T16:40:37.784Z,32.00
2022-10-28T16:43:01.568Z,34.45
2022-10-28T16:45:28.253Z,27.60
2022-10-28T16:47:55.134Z,31.63
2022-10-28T16:50:22.010Z,28.58
2022-10-28T16:52:48.653Z,29.67
2022-10-28T16:55:19.489Z,32.72
2022-10-28T16:57:46.104Z,38.35
2022-10-28T17:00:14.072Z,30.50
2022-10-28T17:02:41.019Z,24.13
2022-10-28T17:05:18.725Z,21.80
2022-10-28T17:07:45.386Z,29.98
2022-10-28T17:10:12.878Z,29.55
2022-10-28T17:12:39.548Z,29.52
2022-10-28T17:15:06.699Z,27.85
2022-10-28T17:17:33.331Z,30.98
2022-10-28T17:20:00.091Z,27.50
2022-10-28T17:22:27.489Z,28.50
2022-10-28T17:24:54.649Z,27.00
2022-10-28T17:27:21.323Z,24.77
2022-10-28T17:29:48.001Z,25.50
2022-10-28T17:32:15.051Z,27.55
2022-10-28T17:34:41.775Z,27.55
2022-10-28T17:37:08.758Z,29.10
2022-10-28T17:39:35.389Z,50.13
2022-10-28T17:42:02.668Z,32.00
2022-10-28T17:44:29.314Z,25.30
2022-10-28T17:46:55.953Z,29.60
2022-10-28T17:49:22.603Z,27.75
2022-10-28T17:51:49.223Z,24.80
2022-10-28T17:54:15.869Z,22.80
2022-10-28T17:56:42.633Z,30.17
2022-10-28T17:59:09.556Z,21.77
2022-10-28T18:01:36.458Z,22.13
2022-10-28T18:04:04.555Z,34.65
2022-10-28T18:06:31.278Z,26.02
2022-10-28T18:08:58.585Z,31.25
2022-10-28T18:11:26.631Z,27.58
2022-10-28T18:13:55.971Z,30.73
2022-10-28T18:16:24.461Z,30.02
2022-10-28T18:18:51.651Z,24.40
2022-10-28T18:21:18.368Z,22.55
2022-10-28T18:23:45.026Z,30.98
2022-10-28T18:26:14.028Z,34.10
2022-10-28T18:28:42.034Z,25.35
2022-10-28T18:31:19.516Z,42.60
2022-10-28T18:33:46.778Z,35.65
2022-10-28T18:36:15.647Z,34.65
2022-10-28T18:38:42.385Z,44.22
2022-10-28T18:41:11.259Z,40.83
2022-10-28T18:43:38.042Z,56.13
2022-10-28T18:46:04.781Z,51.05
2022-10-28T18:48:31.550Z,45.00
2022-10-28T18:51:03.988Z,34.17
2022-10-28T18:53:30.611Z,44.75
2022-10-28T18:56:01.040Z,40.85
2022-10-28T18:58:27.994Z,40.33
2022-10-28T19:01:02.601Z,37.60
2022-10-28T19:03:29.225Z,40.67
2022-10-28T19:06:01.446Z,40.13
2022-10-28T19:08:28.106Z,37.42
2022-10-28T19:10:58.725Z,34.58
2022-10-28T19:13:25.625Z,51.88
2022-10-28T19:15:52.435Z,47.60
2022-10-28T19:18:19.492Z,42.40
2022-10-28T19:20:46.309Z,49.03
2022-10-28T19:23:13.047Z,46.72
2022-10-28T19:25:39.693Z,45.67
2022-10-28T19:28:06.358Z,47.03
2022-10-28T19:30:34.545Z,32.47
2022-10-28T19:33:01.224Z,30.80
2022-10-28T19:35:27.922Z,26.35
2022-10-28T19:37:54.609Z,35.00
2022-10-28T19:40:21.265Z,29.00
2022-10-28T19:42:47.955Z,28.50
2022-10-28T19:45:14.651Z,26.50
2022-10-28T19:47:41.260Z,30.92
2022-10-28T19:50:08.585Z,30.15
2022-10-28T19:52:35.238Z,31.10
2022-10-28T19:55:01.874Z,28.67
2022-10-28T19:57:28.533Z,31.73
2022-10-28T19:59:55.257Z,34.70
2022-10-28T20:02:21.994Z,32.63
2022-10-28T20:04:53.372Z,32.42
2022-10-28T20:07:20.198Z,36.53
2022-10-28T20:09:46.953Z,39.50
2022-10-28T20:12:13.600Z,46.40
2022-10-28T20:14:40.241Z,39.50
2022-10-28T20:17:07.236Z,64.63
2022-10-28T20:19:34.052Z,41.35
2022-10-28T20:22:00.677Z,41.00
2022-10-28T20:24:27.341Z,39.58
2022-10-28T20:26:53.975Z,48.55
2022-10-28T20:29:20.608Z,41.20
2022-10-28T20:31:47.269Z,41.22
2022-10-28T20:34:13.884Z,40.40
2022-10-28T20:36:44.195Z,38.65
2022-10-28T20:39:13.879Z,43.70
2022-10-28T20:41:41.779Z,38.92
2022-10-28T20:44:08.932Z,50.28
2022-10-28T20:46:35.861Z,44.60
2022-10-28T20:49:03.206Z,38.22
2022-10-28T20:51:31.823Z,43.00
2022-10-28T20:53:59.085Z,40.42
2022-10-28T20:56:27.862Z,53.03
2022-10-28T20:58:55.647Z,40.00
2022-10-28T21:01:24.728Z,45.75
2022-10-28T21:06:25.634Z,62.15
2022-10-28T21:08:53.627Z,50.97
2022-10-28T21:11:22.829Z,44.03
2022-10-28T21:16:20.204Z,47.13
2022-10-28T21:18:47.202Z,38.80
2022-10-28T21:21:14.065Z,45.25
2022-10-28T21:23:40.707Z,33.30
2022-10-28T21:26:08.427Z,34.90
2022-10-28T21:28:36.411Z,36.38
2022-10-28T21:31:08.151Z,34.90
2022-10-28T21:33:36.296Z,32.40
2022-10-28T21:36:09.642Z,36.17
2022-10-28T21:38:36.507Z,33.72
2022-10-28T21:41:11.002Z,39.17
2022-10-28T21:43:39.494Z,35.25
2022-10-28T21:46:06.687Z,36.83
2022-10-28T21:48:34.349Z,35.00
2022-10-28T21:51:02.824Z,36.45
2022-10-28T21:53:32.430Z,36.92
2022-10-28T21:56:19.663Z,32.10
2022-10-28T21:58:48.275Z,34.30
2022-10-28T22:01:17.558Z,30.83
2022-10-28T22:03:44.320Z,28.98
2022-10-28T22:06:11.119Z,28.48
2022-10-28T22:08:37.742Z,30.15
2022-10-28T22:11:06.700Z,28.73
2022-10-28T22:13:34.224Z,30.65
2022-10-28T22:16:04.354Z,31.77
2022-10-28T22:18:32.619Z,31.67
2022-10-28T22:21:11.826Z,29.08
2022-10-28T22:23:38.999Z,29.92
2022-10-28T22:26:07.536Z,31.63
2022-10-28T22:28:34.323Z,32.50
2022-10-28T22:31:06.735Z,30.98
2022-10-28T22:33:33.645Z,31.23
2022-10-28T22:36:06.187Z,31.88
2022-10-28T22:38:32.868Z,32.88
2022-10-28T22:41:11.022Z,31.38
2022-10-28T22:43:38.258Z,36.83
2022-10-28T22:46:05.346Z,30.40
2022-10-28T22:48:32.766Z,31.98
2022-10-28T22:51:00.050Z,33.65
2022-10-28T22:53:26.824Z,35.03
2022-10-28T22:55:53.871Z,37.17
2022-10-28T22:58:21.243Z,33.45
2022-10-28T23:00:48.568Z,37.28
2022-10-28T23:03:15.296Z,34.60
2022-10-28T23:05:42.195Z,46.10
2022-10-28T23:08:12.907Z,34.00
2022-10-28T23:10:39.540Z,35.53
2022-10-28T23:13:06.278Z,40.28
2022-10-28T23:15:33.731Z,34.75
2022-10-28T23:18:00.397Z,33.40
2022-10-28T23:20:27.043Z,39.00
2022-10-28T23:22:56.477Z,39.33
2022-10-28T23:25:23.267Z,34.22
2022-10-28T23:27:49.900Z,31.08
2022-10-28T23:30:16.647Z,36.60
2022-10-28T23:32:43.304Z,34.42
2022-10-28T23:35:09.929Z,37.22
2022-10-28T23:37:36.695Z,32.28
2022-10-28T23:40:03.802Z,41.28
2022-10-28T23:42:30.485Z,40.97
2022-10-28T23:44:57.194Z,33.40
2022-10-28T23:47:23.831Z,34.53
2022-10-28T23:49:50.482Z,36.45
2022-10-28T23:52:17.131Z,37.63
2022-10-28T23:54:43.801Z,33.80
2022-10-28T23:57:10.451Z,34.00
2022-10-28T23:59:37.099Z,38.03
